KHKA/HKA METAR and TAF weather

Enter ICAO airport designator
Station Type Date Time Source
KHKA METAR 2019/12/11 11:53 UTC NOAA

KHKA 111153Z AUTO 21005KT 10SM CLR M02/M06 A3049 RMK AO2 SLP327 T10221056 11017 21022 53012 $


Station Type Date Time Source
KHKA Decoded METAR 2019/12/11 11:53 UTC NOAA

BLYTHEVILLE MUNICIPAL AIRPORT , AR, United States (KHKA) 35-56N 89-50W 78M
Dec 11, 2019 - 06:53 AM EST / 2019.12.11 1153 UTC
Wind: from the SSW (210 degrees) at 6 MPH (5 KT):0
Visibility: 10 mile(s):0
Sky conditions: clear
Temperature: 28.0 F (-2.2 C)
Windchill: 21 F (-6 C):1
Dew Point: 21.9 F (-5.6 C)
Relative Humidity: 77%
Pressure (altimeter): 30.49 in. Hg (1032 hPa)
Pressure tendency: 0.04 inches (1.2 hPa) higher than three hours ago
ob: KHKA 111153Z AUTO 21005KT 10SM CLR M02/M06 A3049 RMK AO2 SLP327 T10221056 11017 21022 53012
cycle: 12

Station Type Date Time Source
KHKA TAF UTC NOAA

Error!

Example: see airport list